PWSweather.com
Personal Weather Stations
Station Observations
AKOUDA4022
Sousse, AkoudaTN 4022

SousseAkoudaTN 4022

Lat: 35.881801, Lon: 10.566187

Elevation: 200

Station Type: TFA Nexus

http://www.soussewetter.de/meteo/

Latest ConditionsUpdated 3:20:00 PM GMT+01:01 Wednesday, Nov 21, 2018
Currently Today's Max Today's Min Today's Average
Temperature 68.9°F20.5°C 69.4°F20.8°C 55.9°F13.3°C 63.0°F17.2°C
Dew Point 48.9°F9.4°C 53.0°F11.7°C 45.1°F7.3°C 48.4°F9.1°C
Winds 4.0 mph NNE6.4 kmh NNE 4.0 mph -6.4 kmh - - 2.4 mph 3.9 kmh
Wind Gusts 5.2 mph8.4 kmh 7.9 mph12.7 kmh - -
Humidity 49% 67% 48% 59%
Pressure 29.91 in1012.9 mb 29.92 in1013.2 mb 29.85 in1010.8 mb -
Hour Temp Dew Point Humidity Winds Wind Gusts Pressure Precip Precip Rate Daily Precip Total
03:20 PM 68.9°F20.5°C 48.9°F9.4°C 49% 4.0 mph NNE6.4 kmh NNE 5.2 mph8.4 kmh 29.91 in1012.9 mb 0.00 in0.0 mm 0.00 in0.0 mm 0.00 in0.0 mm
03:10 PM 68.9°F20.5°C 48.9°F9.4°C 49% 3.6 mph NW5.8 kmh NW 2.0 mph3.2 kmh 29.91 in1012.9 mb 0.00 in0.0 mm 0.00 in0.0 mm 0.00 in0.0 mm
03:00 PM 68.9°F20.5°C 48.4°F9.1°C 48% 2.7 mph NNE4.3 kmh NNE 5.8 mph9.3 kmh 29.90 in1012.5 mb 0.00 in0.0 mm 0.00 in0.0 mm 0.00 in0.0 mm
01:20 PM 69.1°F20.6°C 51.2°F10.7°C 53% 1.1 mph ESE1.8 kmh ESE 3.7 mph6.0 kmh 29.91 in1012.9 mb 0.00 in0.0 mm 0.00 in0.0 mm 0.00 in0.0 mm
01:10 PM 69.3°F20.7°C 51.4°F10.8°C 53% 1.2 mph W1.9 kmh W 4.0 mph6.4 kmh 29.91 in1012.9 mb 0.00 in0.0 mm 0.00 in0.0 mm 0.00 in0.0 mm
01:00 PM 69.4°F20.8°C 51.6°F10.9°C 53% 1.6 mph SSE2.6 kmh SSE -- 29.90 in1012.5 mb 0.00 in0.0 mm 0.00 in0.0 mm 0.00 in0.0 mm
11:20 AM 69.1°F20.6°C 52.7°F11.5°C 56% 2.9 mph W4.7 kmh W 2.0 mph3.2 kmh 29.91 in1012.9 mb 0.00 in0.0 mm 0.00 in0.0 mm 0.00 in0.0 mm
11:10 AM 69.1°F20.6°C 52.7°F11.5°C 56% 3.9 mph SW6.3 kmh SW 4.3 mph6.9 kmh 29.91 in1012.9 mb 0.00 in0.0 mm 0.00 in0.0 mm 0.00 in0.0 mm
11:00 AM 68.9°F20.5°C 53.0°F11.7°C 57% 3.1 mph W5.0 kmh W 4.2 mph6.8 kmh 29.92 in1013.2 mb 0.00 in0.0 mm 0.00 in0.0 mm 0.00 in0.0 mm
09:20 AM 66.6°F19.2°C 49.9°F9.9°C 55% 3.5 mph SW5.6 kmh SW 3.5 mph5.6 kmh 29.90 in1012.5 mb 0.00 in0.0 mm 0.00 in0.0 mm 0.00 in0.0 mm
09:10 AM 66.0°F18.9°C 49.9°F9.9°C 56% 2.2 mph W3.5 kmh W 3.9 mph6.3 kmh 29.90 in1012.5 mb 0.00 in0.0 mm 0.00 in0.0 mm 0.00 in0.0 mm
09:00 AM 65.5°F18.6°C 49.8°F9.9°C 57% 4.0 mph NW6.4 kmh NW 7.9 mph12.7 kmh 29.89 in1012.2 mb 0.00 in0.0 mm 0.00 in0.0 mm 0.00 in0.0 mm
07:20 AM 56.3°F13.5°C 45.5°F7.5°C 67% 2.0 mph WSW3.2 kmh WSW 2.6 mph4.2 kmh 29.87 in1011.5 mb 0.00 in0.0 mm 0.00 in0.0 mm 0.00 in0.0 mm
07:10 AM 55.9°F13.3°C 45.1°F7.3°C 67% 2.2 mph E3.5 kmh E 2.4 mph3.9 kmh 29.87 in1011.5 mb 0.00 in0.0 mm 0.00 in0.0 mm 0.00 in0.0 mm
07:00 AM 55.9°F13.3°C 45.1°F7.3°C 67% 2.9 mph WSW4.7 kmh WSW 3.4 mph5.5 kmh 29.86 in1011.2 mb 0.00 in0.0 mm 0.00 in0.0 mm 0.00 in0.0 mm
05:20 AM 56.7°F13.7°C 45.8°F7.7°C 67% 2.1 mph W3.4 kmh W 3.1 mph5.0 kmh 29.85 in1010.8 mb 0.00 in0.0 mm 0.00 in0.0 mm 0.00 in0.0 mm
05:10 AM 56.7°F13.7°C 45.4°F7.4°C 66% 2.4 mph NW3.9 kmh NW 1.6 mph2.6 kmh 29.85 in1010.8 mb 0.00 in0.0 mm 0.00 in0.0 mm 0.00 in0.0 mm
05:00 AM 56.7°F13.7°C 45.4°F7.4°C 66% 2.4 mph WNW3.9 kmh WNW 2.2 mph3.5 kmh 29.85 in1010.8 mb 0.00 in0.0 mm 0.00 in0.0 mm 0.00 in0.0 mm
03:20 AM 57.9°F14.4°C 46.2°F7.9°C 65% 2.2 mph NW3.5 kmh NW 2.1 mph3.4 kmh 29.86 in1011.2 mb 0.00 in0.0 mm 0.00 in0.0 mm 0.00 in0.0 mm
03:10 AM 58.3°F14.6°C 46.2°F7.9°C 64% 3.5 mph W5.6 kmh W 4.8 mph7.7 kmh 29.86 in1011.2 mb 0.00 in0.0 mm 0.00 in0.0 mm 0.00 in0.0 mm
03:00 AM 58.5°F14.7°C 46.7°F8.2°C 65% 3.2 mph SW5.1 kmh SW 6.3 mph10.1 kmh 29.85 in1010.8 mb 0.00 in0.0 mm 0.00 in0.0 mm 0.00 in0.0 mm
01:20 AM 59.7°F15.4°C 47.1°F8.4°C 63% 0.6 mph WSW1.0 kmh WSW 2.1 mph3.4 kmh 29.86 in1011.2 mb 0.00 in0.0 mm 0.00 in0.0 mm 0.00 in0.0 mm
01:10 AM 59.9°F15.5°C 47.3°F8.5°C 63% Calm Calm -- 29.86 in1011.2 mb 0.00 in0.0 mm 0.00 in0.0 mm 0.00 in0.0 mm
01:00 AM 60.1°F15.6°C 47.0°F8.3°C 62% 0.1 mph SW0.2 kmh SW -- 29.87 in1011.5 mb 0.00 in0.0 mm 0.00 in0.0 mm 0.00 in0.0 mm